createdAt,value
2019-05-16T00:02:14.747Z,87031.91
2019-05-16T00:04:41.499Z,87023.66
2019-05-16T00:07:08.258Z,87022.90
2019-05-16T00:09:35.045Z,87017.27
2019-05-16T00:12:01.730Z,87022.72
2019-05-16T00:14:28.468Z,87026.40
2019-05-16T00:16:55.281Z,87015.31
2019-05-16T00:19:22.003Z,87024.23
2019-05-16T00:21:48.878Z,87009.83
2019-05-16T00:24:15.662Z,87008.89
2019-05-16T00:26:42.376Z,87014.21
2019-05-16T00:29:09.110Z,87012.87
2019-05-16T00:31:38.070Z,87009.03
2019-05-16T00:34:04.529Z,87002.67
2019-05-16T00:36:31.257Z,86999.98
2019-05-16T00:38:58.043Z,86996.13
2019-05-16T00:41:24.800Z,87000.60
2019-05-16T00:43:51.553Z,86994.76
2019-05-16T00:46:20.059Z,86992.36
2019-05-16T00:48:48.710Z,86991.74
2019-05-16T00:51:18.135Z,86986.05
2019-05-16T00:53:44.618Z,86986.96
2019-05-16T00:56:11.367Z,86983.40
2019-05-16T00:58:38.931Z,86986.56
2019-05-16T01:01:08.303Z,86980.17
2019-05-16T01:03:34.370Z,86978.86
2019-05-16T01:06:01.094Z,86975.34
2019-05-16T01:08:28.316Z,86979.08
2019-05-16T01:10:55.323Z,86983.91
2019-05-16T01:13:22.049Z,86977.85
2019-05-16T01:15:48.892Z,86985.77
2019-05-16T01:18:15.588Z,86981.63
2019-05-16T01:20:42.322Z,86979.02
2019-05-16T01:23:09.206Z,86981.23
2019-05-16T01:25:36.000Z,86981.77
2019-05-16T01:28:03.153Z,86973.74
2019-05-16T01:30:29.921Z,86972.88
2019-05-16T01:32:58.243Z,86965.50
2019-05-16T01:35:25.184Z,86967.39
2019-05-16T01:37:51.969Z,86966.84
2019-05-16T01:40:19.065Z,86958.25
2019-05-16T01:42:45.933Z,86958.34
2019-05-16T01:45:13.237Z,86958.96
2019-05-16T01:47:39.969Z,86953.19
2019-05-16T01:50:08.692Z,86951.30
2019-05-16T01:52:38.056Z,86950.81
2019-05-16T01:55:04.724Z,86947.98
2019-05-16T01:57:31.474Z,86951.22
2019-05-16T01:59:58.915Z,86945.01
2019-05-16T02:02:25.932Z,86938.83
2019-05-16T02:04:52.658Z,86936.43
2019-05-16T02:07:19.520Z,86937.83
2019-05-16T02:09:47.687Z,86934.63
2019-05-16T02:12:14.595Z,86930.64
2019-05-16T02:14:41.437Z,86928.18
2019-05-16T02:17:10.891Z,86927.63
2019-05-16T02:19:38.462Z,86922.80
2019-05-16T02:22:05.362Z,86919.42
2019-05-16T02:24:32.199Z,86919.09
2019-05-16T02:26:59.143Z,86916.87
2019-05-16T02:29:26.049Z,86909.60
2019-05-16T02:31:52.767Z,86906.98
2019-05-16T02:34:21.728Z,86917.45
2019-05-16T02:37:09.542Z,86907.72
2019-05-16T02:39:16.640Z,86905.10
2019-05-16T02:41:46.284Z,86902.94
2019-05-16T02:44:12.312Z,86899.72
2019-05-16T02:46:41.817Z,86899.92
2019-05-16T02:49:11.337Z,86894.70
2019-05-16T02:51:36.349Z,86893.17
2019-05-16T02:54:03.188Z,86892.78
2019-05-16T02:56:31.690Z,86894.60
2019-05-16T02:59:01.733Z,86892.08
2019-05-16T03:01:31.601Z,86888.95
2019-05-16T03:03:56.810Z,86884.41
2019-05-16T03:06:25.521Z,86882.38
2019-05-16T03:08:54.027Z,86883.11
2019-05-16T03:11:21.407Z,86880.86
2019-05-16T03:13:52.370Z,86881.41
2019-05-16T03:16:22.243Z,86877.15
2019-05-16T03:18:51.620Z,86875.08
2019-05-16T03:21:22.335Z,86877.30
2019-05-16T03:23:50.770Z,86871.09
2019-05-16T03:26:20.823Z,86871.46
2019-05-16T03:28:46.214Z,86869.79
2019-05-16T03:31:15.264Z,86862.92
2019-05-16T03:33:49.894Z,86863.07
2019-05-16T03:36:14.726Z,86857.08
2019-05-16T03:38:41.107Z,86860.21
2019-05-16T03:41:07.157Z,86860.76
2019-05-16T03:43:33.972Z,86856.80
2019-05-16T03:46:02.557Z,86859.96
2019-05-16T03:48:31.542Z,86864.43
2019-05-16T03:51:00.652Z,86863.82
2019-05-16T03:53:26.452Z,86868.25
2019-05-16T03:55:53.198Z,86866.15
2019-05-16T03:58:22.544Z,86865.54
2019-05-16T04:00:53.202Z,86867.06
2019-05-16T04:03:21.431Z,86864.62
2019-05-16T04:05:52.106Z,86866.95
2019-05-16T04:08:23.353Z,86863.33
2019-05-16T04:10:45.956Z,86871.06
2019-05-16T04:13:12.880Z,86870.55
2019-05-16T04:15:40.752Z,86875.92
2019-05-16T04:18:10.915Z,86876.83
2019-05-16T04:20:40.426Z,86880.30
2019-05-16T04:23:06.970Z,86884.22
2019-05-16T04:25:33.777Z,86883.25
2019-05-16T04:28:01.079Z,86887.70
2019-05-16T04:30:31.003Z,86892.53
2019-05-16T04:32:56.541Z,86883.34
2019-05-16T04:35:23.343Z,86887.95
2019-05-16T04:37:51.290Z,86886.86
2019-05-16T04:40:18.259Z,86885.30
2019-05-16T04:42:46.774Z,86884.49
2019-05-16T04:45:13.692Z,86885.58
2019-05-16T04:47:41.314Z,86888.70
2019-05-16T04:50:11.615Z,86889.78
2019-05-16T04:52:37.656Z,86888.88
2019-05-16T04:55:07.640Z,86891.70
2019-05-16T04:57:34.828Z,86894.77
2019-05-16T05:00:02.573Z,86886.72
2019-05-16T05:02:30.931Z,86889.23
2019-05-16T05:05:00.975Z,86887.63
2019-05-16T05:07:26.617Z,86892.21
2019-05-16T05:09:53.341Z,86887.86
2019-05-16T05:12:20.795Z,86888.91
2019-05-16T05:14:50.809Z,86884.37
2019-05-16T05:17:16.426Z,86886.19
2019-05-16T05:19:43.179Z,86889.26
2019-05-16T05:22:10.460Z,86889.66
2019-05-16T05:24:37.274Z,86884.13
2019-05-16T05:27:04.034Z,86890.16
2019-05-16T05:29:30.853Z,86891.16
2019-05-16T05:32:03.508Z,86894.81
2019-05-16T05:34:26.134Z,86896.80
2019-05-16T05:36:54.213Z,86890.11
2019-05-16T05:39:23.467Z,86884.18
2019-05-16T05:41:50.511Z,86888.34
2019-05-16T05:44:17.465Z,86882.59
2019-05-16T05:46:44.215Z,86885.30
2019-05-16T05:49:11.082Z,86886.42
2019-05-16T05:51:37.834Z,86889.88
2019-05-16T05:54:04.561Z,86887.45
2019-05-16T05:56:31.315Z,86888.98
2019-05-16T05:58:59.016Z,86890.36
2019-05-16T06:01:26.588Z,86884.75
2019-05-16T06:03:56.712Z,86886.11
2019-05-16T06:06:23.469Z,86887.97
2019-05-16T06:08:50.423Z,86889.07
2019-05-16T06:11:17.162Z,86891.90
2019-05-16T06:13:43.941Z,86892.45
2019-05-16T06:16:10.970Z,86895.06
2019-05-16T06:18:39.700Z,86892.58
2019-05-16T06:21:06.449Z,86892.61
2019-05-16T06:23:33.216Z,86889.44
2019-05-16T06:26:00.602Z,86892.13
2019-05-16T06:28:27.447Z,86891.40
2019-05-16T06:30:54.171Z,86881.38
2019-05-16T06:33:20.997Z,86873.75
2019-05-16T06:35:47.714Z,86877.77
2019-05-16T06:38:14.463Z,86875.59
2019-05-16T06:40:41.314Z,86867.59
2019-05-16T06:43:08.058Z,86863.34
2019-05-16T06:45:34.803Z,86862.70
2019-05-16T06:48:01.568Z,86863.48
2019-05-16T06:50:29.733Z,86858.70
2019-05-16T06:52:56.761Z,86859.35
2019-05-16T06:55:23.636Z,86855.31
2019-05-16T06:57:50.512Z,86855.75
2019-05-16T07:00:17.207Z,86854.50
2019-05-16T07:02:44.060Z,86849.67
2019-05-16T07:05:10.779Z,86851.20
2019-05-16T07:07:37.578Z,86851.42
2019-05-16T07:10:04.846Z,86847.53
2019-05-16T07:12:34.083Z,86844.75
2019-05-16T07:15:01.810Z,86842.53
2019-05-16T07:17:30.577Z,86833.02
2019-05-16T07:19:57.216Z,86837.88
2019-05-16T07:22:23.937Z,86830.05
2019-05-16T07:24:50.742Z,86831.56
2019-05-16T07:27:17.464Z,86825.44
2019-05-16T07:29:44.388Z,86823.05
2019-05-16T07:32:12.626Z,86816.89
2019-05-16T07:34:40.381Z,86814.64
2019-05-16T07:37:07.244Z,86810.92
2019-05-16T07:39:34.065Z,86807.37
2019-05-16T07:42:00.818Z,86809.45
2019-05-16T07:44:27.555Z,86807.20
2019-05-16T07:46:54.367Z,86801.78
2019-05-16T07:49:21.080Z,86807.98
2019-05-16T07:51:49.792Z,86798.23
2019-05-16T07:54:16.409Z,86800.10
2019-05-16T07:56:43.131Z,86795.61
2019-05-16T07:59:10.453Z,86799.92
2019-05-16T08:01:39.732Z,86794.84
2019-05-16T08:04:05.923Z,86793.53
2019-05-16T08:06:34.025Z,86790.88
2019-05-16T08:09:01.074Z,86784.50
2019-05-16T08:11:30.418Z,86784.84
2019-05-16T08:13:56.360Z,86782.00
2019-05-16T08:16:23.166Z,86777.83
2019-05-16T08:18:50.662Z,86772.58
2019-05-16T08:21:20.124Z,86765.96
2019-05-16T08:23:46.216Z,86764.98
2019-05-16T08:26:12.974Z,86769.84
2019-05-16T08:28:41.202Z,86767.52
2019-05-16T08:31:11.180Z,86765.17
2019-05-16T08:33:36.896Z,86763.30
2019-05-16T08:36:08.138Z,86761.11
2019-05-16T08:38:33.112Z,86758.36
2019-05-16T08:43:31.295Z,86747.76
2019-05-16T08:45:56.963Z,86747.90
2019-05-16T08:48:23.725Z,86751.65
2019-05-16T08:53:21.637Z,86749.11
2019-05-16T08:55:50.338Z,86747.15
2019-05-16T08:58:16.250Z,86743.67
2019-05-16T09:00:43.050Z,86738.06
2019-05-16T09:03:12.310Z,86738.98
2019-05-16T09:05:42.627Z,86732.98
2019-05-16T09:08:07.031Z,86727.06
2019-05-16T09:10:30.561Z,86747.55
2019-05-16T09:10:37.993Z,86752.03
2019-05-16T09:10:49.782Z,86729.34
2019-05-16T09:13:02.220Z,86724.80
2019-05-16T09:15:28.953Z,86721.62
2019-05-16T09:17:58.143Z,86723.03
2019-05-16T09:20:24.273Z,86721.95
2019-05-16T09:22:51.158Z,86721.80
2019-05-16T09:25:18.713Z,86710.13
2019-05-16T09:27:47.043Z,86708.17
2019-05-16T09:30:17.093Z,86704.77
2019-05-16T09:32:43.322Z,86712.34
2019-05-16T09:35:10.468Z,86708.94
2019-05-16T09:37:37.679Z,86702.25
2019-05-16T09:40:07.079Z,86700.06
2019-05-16T09:42:33.876Z,86699.83
2019-05-16T09:45:00.740Z,86696.53
2019-05-16T09:47:28.407Z,86699.52
2019-05-16T09:49:57.782Z,86690.56
2019-05-16T09:52:23.985Z,86692.56
2019-05-16T09:54:50.708Z,86697.83
2019-05-16T09:57:18.938Z,86692.30
2019-05-16T09:59:46.518Z,86683.16
2019-05-16T10:02:13.353Z,86688.09
2019-05-16T10:04:40.177Z,86686.42
2019-05-16T10:07:06.954Z,86687.47
2019-05-16T10:09:44.081Z,86680.38
2019-05-16T10:12:14.213Z,86680.03
2019-05-16T10:14:30.611Z,86688.35
2019-05-16T10:16:57.864Z,86689.05
2019-05-16T10:19:27.368Z,86688.12
2019-05-16T10:21:53.367Z,86680.61
2019-05-16T10:24:20.287Z,86693.39
2019-05-16T10:26:53.450Z,86684.29
2019-05-16T10:29:18.456Z,86674.17
2019-05-16T10:31:49.282Z,86678.42
2019-05-16T10:34:12.471Z,86682.25
2019-05-16T10:36:39.241Z,86682.40
2019-05-16T10:39:07.618Z,86685.67
2019-05-16T10:41:36.946Z,86680.08
2019-05-16T10:44:03.185Z,86674.97
2019-05-16T10:46:29.913Z,86690.56
2019-05-16T10:48:57.774Z,86675.69
2019-05-16T10:51:26.740Z,86672.95
2019-05-16T10:54:05.778Z,86682.65
2019-05-16T10:56:21.857Z,86679.34
2019-05-16T10:59:24.888Z,86681.89
2019-05-16T11:01:26.954Z,86677.92
2019-05-16T11:03:48.797Z,86681.98
2019-05-16T11:06:25.346Z,86690.12
2019-05-16T11:08:42.946Z,86681.91
2019-05-16T11:11:09.652Z,86681.91
2019-05-16T11:13:37.027Z,86680.84
2019-05-16T11:16:03.914Z,86684.97
2019-05-16T11:18:30.627Z,86682.31
2019-05-16T11:20:58.309Z,86687.09
2019-05-16T11:23:30.886Z,86692.59
2019-05-16T11:25:55.484Z,86685.75
2019-05-16T11:28:22.386Z,86684.77
2019-05-16T11:30:49.945Z,86688.74
2019-05-16T11:33:17.572Z,86687.21
2019-05-16T11:35:47.308Z,86686.20
2019-05-16T11:38:12.974Z,86685.83
2019-05-16T11:40:39.836Z,86686.66
2019-05-16T11:43:15.953Z,86686.37
2019-05-16T11:45:36.795Z,86682.16
2019-05-16T11:48:03.907Z,86678.89
2019-05-16T11:50:30.688Z,86687.44
2019-05-16T11:52:57.452Z,86677.75
2019-05-16T11:55:32.224Z,86682.48
2019-05-16T11:57:52.786Z,86683.05
2019-05-16T12:00:20.348Z,86679.18
2019-05-16T12:02:47.997Z,86681.41
2019-05-16T12:05:17.180Z,86669.67
2019-05-16T12:07:44.559Z,86672.89
2019-05-16T12:10:13.204Z,86673.41
2019-05-16T12:12:40.063Z,86674.09
2019-05-16T12:15:08.108Z,86676.95
2019-05-16T12:17:35.057Z,86684.33
2019-05-16T12:20:02.102Z,86675.88
2019-05-16T12:22:28.841Z,86674.73
2019-05-16T12:24:57.440Z,86671.33
2019-05-16T12:27:31.846Z,86675.77
2019-05-16T12:29:55.478Z,86674.30
2019-05-16T12:32:21.320Z,86670.24
2019-05-16T12:34:48.162Z,86675.96
2019-05-16T12:37:14.921Z,86668.71
2019-05-16T12:39:41.658Z,86668.22
2019-05-16T12:42:08.710Z,86670.20
2019-05-16T12:44:37.349Z,86674.77
2019-05-16T12:47:04.136Z,86672.01
2019-05-16T12:49:30.921Z,86671.58
2019-05-16T12:51:57.676Z,86665.92
2019-05-16T12:54:24.438Z,86669.89
2019-05-16T12:56:51.226Z,86667.59
2019-05-16T12:59:21.215Z,86667.82
2019-05-16T13:01:48.128Z,86676.45
2019-05-16T13:04:18.531Z,86674.48
2019-05-16T13:06:43.580Z,86672.90
2019-05-16T13:09:10.361Z,86676.69
2019-05-16T13:11:37.864Z,86674.22
2019-05-16T13:14:09.900Z,86672.45
2019-05-16T13:16:33.293Z,86669.13
2019-05-16T13:19:00.051Z,86673.48
2019-05-16T13:21:27.577Z,86667.43
2019-05-16T13:23:54.425Z,86670.79
2019-05-16T13:26:22.501Z,86668.48
2019-05-16T13:28:49.265Z,86671.25
2019-05-16T13:31:17.133Z,86665.50
2019-05-16T13:33:44.676Z,86663.37
2019-05-16T13:36:11.512Z,86659.86
2019-05-16T13:38:38.253Z,86661.86
2019-05-16T13:41:07.441Z,86659.62
2019-05-16T13:43:33.758Z,86657.14
2019-05-16T13:46:00.558Z,86651.62
2019-05-16T13:48:27.370Z,86651.20
2019-05-16T13:51:08.393Z,86649.54
2019-05-16T13:53:22.691Z,86654.79
2019-05-16T13:55:49.565Z,86650.87
2019-05-16T13:58:17.913Z,86648.63
2019-05-16T14:00:44.791Z,86651.84
2019-05-16T14:03:11.572Z,86661.53
2019-05-16T14:05:38.339Z,86652.42
2019-05-16T14:08:06.789Z,86646.52
2019-05-16T14:10:33.882Z,86653.25
2019-05-16T14:13:00.608Z,86651.17
2019-05-16T14:15:27.352Z,86651.73
2019-05-16T14:17:56.794Z,86652.38
2019-05-16T14:20:23.935Z,86650.38
2019-05-16T14:22:50.670Z,86649.09
2019-05-16T14:25:17.498Z,86650.14
2019-05-16T14:27:44.214Z,86648.87
2019-05-16T14:30:13.039Z,86643.27
2019-05-16T14:32:42.946Z,86652.72
2019-05-16T14:35:09.234Z,86649.16
2019-05-16T14:37:37.842Z,86656.05
2019-05-16T14:40:06.283Z,86656.05
2019-05-16T14:42:33.046Z,86651.70
2019-05-16T14:45:10.897Z,86656.34
2019-05-16T14:47:29.369Z,86657.59
2019-05-16T14:49:56.090Z,86652.27
2019-05-16T14:52:22.845Z,86654.84
2019-05-16T14:54:49.641Z,86657.45
2019-05-16T14:57:16.777Z,86652.16
2019-05-16T14:59:43.617Z,86649.32
2019-05-16T15:02:10.506Z,86652.83
2019-05-16T15:04:37.740Z,86650.64
2019-05-16T15:07:06.821Z,86652.72
2019-05-16T15:09:33.379Z,86655.18
2019-05-16T15:12:00.159Z,86654.61
2019-05-16T15:14:28.092Z,86657.48
2019-05-16T15:16:57.421Z,86654.72
2019-05-16T15:19:24.885Z,86653.41
2019-05-16T15:21:51.636Z,86657.44
2019-05-16T15:24:18.502Z,86658.35
2019-05-16T15:26:47.238Z,86656.30
2019-05-16T15:29:16.359Z,86659.09
2019-05-16T15:31:42.649Z,86661.63
2019-05-16T15:34:09.425Z,86660.53
2019-05-16T15:36:37.242Z,86663.59
2019-05-16T15:39:08.100Z,86659.28
2019-05-16T15:41:36.672Z,86663.02
2019-05-16T15:44:03.865Z,86657.58
2019-05-16T15:46:30.750Z,86661.30
2019-05-16T15:49:00.417Z,86661.77
2019-05-16T15:51:27.387Z,86652.43
2019-05-16T15:53:57.096Z,86650.95
2019-05-16T15:56:26.942Z,86653.97
2019-05-16T15:58:52.977Z,86654.61
2019-05-16T16:01:19.842Z,86654.39
2019-05-16T16:03:47.281Z,86653.51
2019-05-16T16:06:14.259Z,86658.86
2019-05-16T16:08:41.050Z,86659.84
2019-05-16T16:11:07.803Z,86663.11
2019-05-16T16:13:37.152Z,86659.46
2019-05-16T16:16:03.533Z,86660.03
2019-05-16T16:18:30.282Z,86665.81
2019-05-16T16:20:57.278Z,86658.95
2019-05-16T16:23:27.009Z,86665.69
2019-05-16T16:25:52.721Z,86659.30
2019-05-16T16:28:19.632Z,86663.55
2019-05-16T16:30:47.954Z,86657.16
2019-05-16T16:33:24.994Z,86662.37
2019-05-16T16:35:48.082Z,86668.78
2019-05-16T16:38:16.926Z,86661.55
2019-05-16T16:40:43.511Z,86660.86
2019-05-16T16:43:11.668Z,86666.25
2019-05-16T16:45:38.470Z,86661.38
2019-05-16T16:48:07.638Z,86668.82
2019-05-16T16:50:33.935Z,86665.64
2019-05-16T16:53:00.816Z,86672.23
2019-05-16T16:55:27.768Z,86669.38
2019-05-16T16:57:56.666Z,86670.08
2019-05-16T17:00:23.279Z,86674.33
2019-05-16T17:03:03.102Z,86675.70
2019-05-16T17:05:20.911Z,86681.69
2019-05-16T17:07:48.673Z,86684.80
2019-05-16T17:10:16.559Z,86685.63
2019-05-16T17:12:43.651Z,86685.34
2019-05-16T17:15:11.172Z,86693.81
2019-05-16T17:17:37.949Z,86699.69
2019-05-16T17:20:07.625Z,86704.36
2019-05-16T17:22:37.133Z,86704.16
2019-05-16T17:25:07.310Z,86705.03
2019-05-16T17:27:34.068Z,86705.09
2019-05-16T17:30:02.451Z,86701.84
2019-05-16T17:32:29.472Z,86702.81
2019-05-16T17:34:56.177Z,86704.80
2019-05-16T17:37:23.076Z,86706.83
2019-05-16T17:39:49.947Z,86708.34
2019-05-16T17:42:16.767Z,86710.08
2019-05-16T17:44:47.074Z,86706.53
2019-05-16T17:47:12.176Z,86708.45
2019-05-16T17:49:41.379Z,86710.94
2019-05-16T17:52:08.336Z,86714.34
2019-05-16T17:54:37.134Z,86724.14
2019-05-16T17:57:03.808Z,86719.66
2019-05-16T17:59:30.684Z,86717.09
2019-05-16T18:01:57.423Z,86722.76
2019-05-16T18:04:26.530Z,86724.32
2019-05-16T18:06:52.838Z,86724.89
2019-05-16T18:09:19.598Z,86718.91
2019-05-16T18:11:46.788Z,86723.45
2019-05-16T18:14:17.174Z,86721.46
2019-05-16T18:16:58.395Z,86730.16
2019-05-16T18:19:23.784Z,86726.58
2019-05-16T18:22:02.831Z,86732.08
2019-05-16T18:24:33.786Z,86729.25
2019-05-16T18:27:07.390Z,86729.08
2019-05-16T18:29:39.933Z,86726.81
2019-05-16T18:32:08.185Z,86735.30
2019-05-16T18:34:37.453Z,86735.67
2019-05-16T18:37:03.550Z,86738.66
2019-05-16T18:39:30.268Z,86742.62
2019-05-16T18:41:57.015Z,86740.22
2019-05-16T18:44:24.668Z,86744.92
2019-05-16T18:47:04.032Z,86742.48
2019-05-16T18:49:19.965Z,86744.36
2019-05-16T18:51:46.839Z,86750.00
2019-05-16T18:54:13.607Z,86747.36
2019-05-16T18:56:40.359Z,86752.66
2019-05-16T18:59:07.273Z,86756.58
2019-05-16T19:01:37.374Z,86758.66
2019-05-16T19:04:03.559Z,86754.34
2019-05-16T19:06:30.441Z,86759.97
2019-05-16T19:08:58.477Z,86768.05
2019-05-16T19:11:26.833Z,86767.68
2019-05-16T19:13:53.711Z,86762.61
2019-05-16T19:16:20.470Z,86764.52
2019-05-16T19:18:47.232Z,86763.76
2019-05-16T19:21:14.132Z,86771.27
2019-05-16T19:23:40.875Z,86770.73
2019-05-16T19:26:07.590Z,86777.33
2019-05-16T19:28:34.404Z,86775.45
2019-05-16T19:31:01.326Z,86779.78
2019-05-16T19:33:28.088Z,86776.80
2019-05-16T19:35:56.529Z,86782.62
2019-05-16T19:38:23.455Z,86781.86
2019-05-16T19:40:50.186Z,86779.78
2019-05-16T19:43:17.498Z,86780.55
2019-05-16T19:45:46.427Z,86780.55
2019-05-16T19:48:13.063Z,86783.38
2019-05-16T19:50:39.948Z,86777.37
2019-05-16T19:53:07.573Z,86780.02
2019-05-16T19:55:36.590Z,86776.62
2019-05-16T19:58:03.302Z,86778.13
2019-05-16T20:00:30.120Z,86780.40
2019-05-16T20:02:57.078Z,86782.48
2019-05-16T20:05:23.905Z,86786.96
2019-05-16T20:07:50.677Z,86786.42
2019-05-16T20:10:17.401Z,86787.94
2019-05-16T20:12:46.165Z,86789.42
2019-05-16T20:15:13.758Z,86791.50
2019-05-16T20:17:52.110Z,86798.44
2019-05-16T20:20:09.795Z,86797.49
2019-05-16T20:22:36.958Z,86804.86
2019-05-16T20:25:05.276Z,86808.03
2019-05-16T20:27:32.105Z,86806.15
2019-05-16T20:29:59.420Z,86811.03
2019-05-16T20:32:27.639Z,86801.64
2019-05-16T20:34:54.481Z,86804.27
2019-05-16T20:37:21.211Z,86803.32
2019-05-16T20:39:47.973Z,86799.77
2019-05-16T20:42:16.935Z,86797.13
2019-05-16T20:44:43.439Z,86798.81
2019-05-16T20:47:10.167Z,86802.20
2019-05-16T20:49:37.468Z,86804.27
2019-05-16T20:52:06.910Z,86800.69
2019-05-16T20:54:32.971Z,86802.22
2019-05-16T20:56:59.851Z,86802.97
2019-05-16T20:59:26.667Z,86802.02
2019-05-16T21:01:53.432Z,86796.98
2019-05-16T21:04:20.206Z,86804.66
2019-05-16T21:06:59.936Z,86800.70
2019-05-16T21:09:16.948Z,86800.54
2019-05-16T21:11:43.955Z,86801.86
2019-05-16T21:14:10.714Z,86802.41
2019-05-16T21:16:38.029Z,86804.88
2019-05-16T21:19:06.936Z,86806.00
2019-05-16T21:21:33.577Z,86812.02
2019-05-16T21:24:00.340Z,86807.12
2019-05-16T21:26:27.145Z,86801.30
2019-05-16T21:28:53.853Z,86799.22
2019-05-16T21:31:20.581Z,86802.44
2019-05-16T21:33:48.473Z,86795.66
2019-05-16T21:36:16.065Z,86798.66
2019-05-16T21:38:43.771Z,86795.86
2019-05-16T21:41:10.552Z,86797.92
2019-05-16T21:43:37.762Z,86794.73
2019-05-16T21:46:04.657Z,86800.00
2019-05-16T21:48:31.440Z,86800.58
2019-05-16T21:50:58.198Z,86800.94
2019-05-16T21:53:29.654Z,86802.27
2019-05-16T21:55:53.532Z,86798.31
2019-05-16T21:58:20.257Z,86799.45
2019-05-16T22:00:56.691Z,86794.00
2019-05-16T22:03:23.261Z,86797.19
2019-05-16T22:05:49.962Z,86789.45
2019-05-16T22:08:16.924Z,86791.16
2019-05-16T22:10:43.867Z,86796.06
2019-05-16T22:13:10.610Z,86793.44
2019-05-16T22:15:37.532Z,86795.88
2019-05-16T22:18:06.999Z,86794.36
2019-05-16T22:20:33.054Z,86796.03
2019-05-16T22:22:59.801Z,86791.36
2019-05-16T22:25:27.285Z,86800.01
2019-05-16T22:27:54.116Z,86795.69
2019-05-16T22:30:21.242Z,86797.93
2019-05-16T22:32:48.138Z,86792.87
2019-05-16T22:35:17.282Z,86796.81
2019-05-16T22:37:54.911Z,86790.42
2019-05-16T22:40:17.216Z,86792.67
2019-05-16T22:42:43.833Z,86788.35
2019-05-16T22:45:10.885Z,86788.35
2019-05-16T22:47:37.704Z,86788.35
2019-05-16T22:50:08.271Z,86791.55
2019-05-16T22:52:36.799Z,86783.09
2019-05-16T22:55:07.249Z,86780.28
2019-05-16T22:57:33.538Z,86783.84
2019-05-16T23:00:00.265Z,86787.42
2019-05-16T23:02:27.511Z,86785.36
2019-05-16T23:04:56.523Z,86779.89
2019-05-16T23:07:22.911Z,86785.33
2019-05-16T23:09:49.694Z,86784.23
2019-05-16T23:12:17.427Z,86781.41
2019-05-16T23:14:46.199Z,86782.16
2019-05-16T23:17:13.054Z,86777.45
2019-05-16T23:19:39.836Z,86774.09
2019-05-16T23:22:07.536Z,86779.52
2019-05-16T23:24:36.826Z,86775.05
2019-05-16T23:27:03.314Z,86776.36
2019-05-16T23:29:30.064Z,86771.09
2019-05-16T23:31:56.849Z,86775.41
2019-05-16T23:34:23.566Z,86773.72
2019-05-16T23:36:50.302Z,86779.55
2019-05-16T23:39:17.054Z,86770.33
2019-05-16T23:41:43.784Z,86763.95
2019-05-16T23:44:10.514Z,86764.34
2019-05-16T23:46:37.305Z,86766.80
2019-05-16T23:49:04.060Z,86773.92
2019-05-16T23:51:30.813Z,86770.36
2019-05-16T23:53:57.584Z,86769.06
2019-05-16T23:56:24.330Z,86764.75
2019-05-16T23:58:51.100Z,86760.06
